sensor_id;sensor_type;location;lat;lon;timestamp;temperature;humidity
21403;DHT22;10862;51.886;17.078;2022-08-18T00:02:12;22.50;99.90
21403;DHT22;10862;51.886;17.078;2022-08-18T00:04:38;22.20;99.90
21403;DHT22;10862;51.886;17.078;2022-08-18T00:07:05;22.00;99.90
21403;DHT22;10862;51.886;17.078;2022-08-18T00:09:31;21.90;99.90
21403;DHT22;10862;51.886;17.078;2022-08-18T00:11:57;21.80;99.90
21403;DHT22;10862;51.886;17.078;2022-08-18T00:14:23;21.80;99.90
21403;DHT22;10862;51.886;17.078;2022-08-18T00:16:49;21.80;99.90
21403;DHT22;10862;51.886;17.078;2022-08-18T00:19:15;21.80;99.90
21403;DHT22;10862;51.886;17.078;2022-08-18T00:21:41;21.80;99.90
21403;DHT22;10862;51.886;17.078;2022-08-18T00:24:06;21.80;99.90
21403;DHT22;10862;51.886;17.078;2022-08-18T00:26:32;21.80;99.90
21403;DHT22;10862;51.886;17.078;2022-08-18T00:28:57;21.90;99.90
21403;DHT22;10862;51.886;17.078;2022-08-18T00:31:23;22.00;99.90
21403;DHT22;10862;51.886;17.078;2022-08-18T00:33:48;22.20;99.90
21403;DHT22;10862;51.886;17.078;2022-08-18T00:36:14;22.20;99.90
21403;DHT22;10862;51.886;17.078;2022-08-18T00:38:39;22.30;99.90
21403;DHT22;10862;51.886;17.078;2022-08-18T00:41:05;22.20;99.90
21403;DHT22;10862;51.886;17.078;2022-08-18T00:46:14;21.90;99.90
21403;DHT22;10862;51.886;17.078;2022-08-18T00:48:40;21.90;99.90
21403;DHT22;10862;51.886;17.078;2022-08-18T00:51:11;22.00;99.90
21403;DHT22;10862;51.886;17.078;2022-08-18T00:53:39;21.90;99.90
21403;DHT22;10862;51.886;17.078;2022-08-18T00:56:12;22.00;99.90
21403;DHT22;10862;51.886;17.078;2022-08-18T00:58:40;22.10;99.90
21403;DHT22;10862;51.886;17.078;2022-08-18T01:01:07;22.20;99.90
21403;DHT22;10862;51.886;17.078;2022-08-18T01:03:33;22.20;99.90
21403;DHT22;10862;51.886;17.078;2022-08-18T01:06:03;22.20;99.90
21403;DHT22;10862;51.886;17.078;2022-08-18T01:08:31;21.90;99.90
21403;DHT22;10862;51.886;17.078;2022-08-18T01:10:56;21.60;99.90
21403;DHT22;10862;51.886;17.078;2022-08-18T01:13:26;21.50;99.90
21403;DHT22;10862;51.886;17.078;2022-08-18T01:15:53;21.60;99.90
21403;DHT22;10862;51.886;17.078;2022-08-18T01:18:19;21.60;99.90
21403;DHT22;10862;51.886;17.078;2022-08-18T01:23:48;21.50;99.90
21403;DHT22;10862;51.886;17.078;2022-08-18T01:26:14;21.60;99.90
21403;DHT22;10862;51.886;17.078;2022-08-18T01:28:41;21.60;99.90
21403;DHT22;10862;51.886;17.078;2022-08-18T01:31:09;21.40;99.90
21403;DHT22;10862;51.886;17.078;2022-08-18T01:33:37;21.50;99.90
21403;DHT22;10862;51.886;17.078;2022-08-18T01:36:09;21.60;99.90
21403;DHT22;10862;51.886;17.078;2022-08-18T01:38:36;21.60;99.90
21403;DHT22;10862;51.886;17.078;2022-08-18T01:41:02;21.50;99.90
21403;DHT22;10862;51.886;17.078;2022-08-18T01:43:29;21.50;99.90
21403;DHT22;10862;51.886;17.078;2022-08-18T01:45:54;21.50;99.90
21403;DHT22;10862;51.886;17.078;2022-08-18T01:48:21;21.60;99.90
21403;DHT22;10862;51.886;17.078;2022-08-18T01:50:47;21.60;99.90
21403;DHT22;10862;51.886;17.078;2022-08-18T01:53:13;21.60;99.90
21403;DHT22;10862;51.886;17.078;2022-08-18T01:55:39;21.80;99.90
21403;DHT22;10862;51.886;17.078;2022-08-18T01:58:08;21.60;99.90
21403;DHT22;10862;51.886;17.078;2022-08-18T02:00:34;21.60;99.90
21403;DHT22;10862;51.886;17.078;2022-08-18T02:03:01;21.70;99.90
21403;DHT22;10862;51.886;17.078;2022-08-18T02:05:33;21.60;99.90
21403;DHT22;10862;51.886;17.078;2022-08-18T02:07:58;21.60;99.90
21403;DHT22;10862;51.886;17.078;2022-08-18T02:10:24;21.60;99.90
21403;DHT22;10862;51.886;17.078;2022-08-18T02:12:51;21.50;99.90
21403;DHT22;10862;51.886;17.078;2022-08-18T02:15:17;21.30;99.90
21403;DHT22;10862;51.886;17.078;2022-08-18T02:17:43;21.30;99.90
21403;DHT22;10862;51.886;17.078;2022-08-18T02:20:10;21.10;99.90
21403;DHT22;10862;51.886;17.078;2022-08-18T02:22:36;21.10;99.90
21403;DHT22;10862;51.886;17.078;2022-08-18T02:25:01;21.10;99.90
21403;DHT22;10862;51.886;17.078;2022-08-18T02:27:28;21.00;99.90
21403;DHT22;10862;51.886;17.078;2022-08-18T02:29:53;20.90;99.90
21403;DHT22;10862;51.886;17.078;2022-08-18T02:32:19;20.90;99.90
21403;DHT22;10862;51.886;17.078;2022-08-18T02:34:45;20.90;99.90
21403;DHT22;10862;51.886;17.078;2022-08-18T02:37:10;20.90;99.90
21403;DHT22;10862;51.886;17.078;2022-08-18T02:39:36;21.00;99.90
21403;DHT22;10862;51.886;17.078;2022-08-18T02:42:03;20.90;99.90
21403;DHT22;10862;51.886;17.078;2022-08-18T02:44:28;21.10;99.90
21403;DHT22;10862;51.886;17.078;2022-08-18T02:46:55;21.00;99.90
21403;DHT22;10862;51.886;17.078;2022-08-18T02:49:21;20.80;99.90
21403;DHT22;10862;51.886;17.078;2022-08-18T02:51:46;20.80;99.90
21403;DHT22;10862;51.886;17.078;2022-08-18T02:54:12;20.60;99.90
21403;DHT22;10862;51.886;17.078;2022-08-18T02:56:37;20.60;99.90
21403;DHT22;10862;51.886;17.078;2022-08-18T02:59:04;20.50;99.90
21403;DHT22;10862;51.886;17.078;2022-08-18T03:01:33;20.60;99.90
21403;DHT22;10862;51.886;17.078;2022-08-18T03:03:59;20.80;99.90
21403;DHT22;10862;51.886;17.078;2022-08-18T03:06:25;20.70;99.90
21403;DHT22;10862;51.886;17.078;2022-08-18T03:08:52;20.70;99.90
21403;DHT22;10862;51.886;17.078;2022-08-18T03:11:19;20.90;99.90
21403;DHT22;10862;51.886;17.078;2022-08-18T03:13:45;21.00;99.90
21403;DHT22;10862;51.886;17.078;2022-08-18T03:16:11;21.00;99.90
21403;DHT22;10862;51.886;17.078;2022-08-18T03:18:36;20.80;99.90
21403;DHT22;10862;51.886;17.078;2022-08-18T03:21:09;20.80;99.90
21403;DHT22;10862;51.886;17.078;2022-08-18T03:23:35;20.70;99.90
21403;DHT22;10862;51.886;17.078;2022-08-18T03:26:00;20.40;99.90
21403;DHT22;10862;51.886;17.078;2022-08-18T03:28:26;20.30;99.90
21403;DHT22;10862;51.886;17.078;2022-08-18T03:30:53;20.30;99.90
21403;DHT22;10862;51.886;17.078;2022-08-18T03:33:18;20.20;99.90
21403;DHT22;10862;51.886;17.078;2022-08-18T03:35:44;20.10;99.90
21403;DHT22;10862;51.886;17.078;2022-08-18T03:38:09;20.20;99.90
21403;DHT22;10862;51.886;17.078;2022-08-18T03:40:35;20.10;99.90
21403;DHT22;10862;51.886;17.078;2022-08-18T03:43:02;20.20;99.90
21403;DHT22;10862;51.886;17.078;2022-08-18T03:45:31;20.20;99.90
21403;DHT22;10862;51.886;17.078;2022-08-18T03:47:57;20.30;99.90
21403;DHT22;10862;51.886;17.078;2022-08-18T03:50:25;20.40;99.90
21403;DHT22;10862;51.886;17.078;2022-08-18T03:52:50;20.20;99.90
21403;DHT22;10862;51.886;17.078;2022-08-18T03:55:17;20.30;99.90
21403;DHT22;10862;51.886;17.078;2022-08-18T03:57:42;20.20;99.90
21403;DHT22;10862;51.886;17.078;2022-08-18T04:00:08;20.00;99.90
21403;DHT22;10862;51.886;17.078;2022-08-18T04:02:34;20.00;99.90
21403;DHT22;10862;51.886;17.078;2022-08-18T04:04:59;19.90;99.90
21403;DHT22;10862;51.886;17.078;2022-08-18T04:07:25;19.70;99.90
21403;DHT22;10862;51.886;17.078;2022-08-18T04:09:50;19.70;99.90
21403;DHT22;10862;51.886;17.078;2022-08-18T04:12:16;19.70;99.90
21403;DHT22;10862;51.886;17.078;2022-08-18T04:14:43;19.80;99.90
21403;DHT22;10862;51.886;17.078;2022-08-18T04:17:10;19.90;99.90
21403;DHT22;10862;51.886;17.078;2022-08-18T04:19:36;20.00;99.90
21403;DHT22;10862;51.886;17.078;2022-08-18T04:22:02;20.10;99.90
21403;DHT22;10862;51.886;17.078;2022-08-18T04:24:29;20.10;99.90
21403;DHT22;10862;51.886;17.078;2022-08-18T04:26:55;20.20;99.90
21403;DHT22;10862;51.886;17.078;2022-08-18T04:29:21;20.30;99.90
21403;DHT22;10862;51.886;17.078;2022-08-18T04:31:48;20.30;99.90
21403;DHT22;10862;51.886;17.078;2022-08-18T04:34:14;20.40;99.90
21403;DHT22;10862;51.886;17.078;2022-08-18T04:36:40;20.60;99.90
21403;DHT22;10862;51.886;17.078;2022-08-18T04:39:07;20.80;99.90
21403;DHT22;10862;51.886;17.078;2022-08-18T04:41:32;20.60;99.90
21403;DHT22;10862;51.886;17.078;2022-08-18T04:43:59;20.70;99.90
21403;DHT22;10862;51.886;17.078;2022-08-18T04:46:26;20.70;99.90
21403;DHT22;10862;51.886;17.078;2022-08-18T04:48:52;20.80;99.90
21403;DHT22;10862;51.886;17.078;2022-08-18T04:51:21;20.80;99.90
21403;DHT22;10862;51.886;17.078;2022-08-18T04:53:47;20.80;99.90
21403;DHT22;10862;51.886;17.078;2022-08-18T04:56:13;20.70;99.90
21403;DHT22;10862;51.886;17.078;2022-08-18T04:58:39;20.80;99.90
21403;DHT22;10862;51.886;17.078;2022-08-18T05:01:05;20.80;99.90
21403;DHT22;10862;51.886;17.078;2022-08-18T05:03:30;21.00;99.90
21403;DHT22;10862;51.886;17.078;2022-08-18T05:05:57;21.00;99.90
21403;DHT22;10862;51.886;17.078;2022-08-18T05:08:23;21.10;99.90
21403;DHT22;10862;51.886;17.078;2022-08-18T05:10:52;21.20;99.90
21403;DHT22;10862;51.886;17.078;2022-08-18T05:13:18;21.50;99.90
21403;DHT22;10862;51.886;17.078;2022-08-18T05:15:43;21.70;99.90
21403;DHT22;10862;51.886;17.078;2022-08-18T05:18:09;21.90;99.90
21403;DHT22;10862;51.886;17.078;2022-08-18T05:20:35;22.00;99.90
21403;DHT22;10862;51.886;17.078;2022-08-18T05:23:01;22.00;99.90
21403;DHT22;10862;51.886;17.078;2022-08-18T05:25:27;22.20;99.90
21403;DHT22;10862;51.886;17.078;2022-08-18T05:27:53;22.30;99.90
21403;DHT22;10862;51.886;17.078;2022-08-18T05:30:19;22.40;99.90
21403;DHT22;10862;51.886;17.078;2022-08-18T05:32:45;22.40;99.90
21403;DHT22;10862;51.886;17.078;2022-08-18T05:35:17;22.40;99.90
21403;DHT22;10862;51.886;17.078;2022-08-18T05:37:52;22.60;99.90
21403;DHT22;10862;51.886;17.078;2022-08-18T05:40:22;22.70;99.90
21403;DHT22;10862;51.886;17.078;2022-08-18T05:42:49;22.70;99.90
21403;DHT22;10862;51.886;17.078;2022-08-18T05:45:16;22.90;99.90
21403;DHT22;10862;51.886;17.078;2022-08-18T05:47:42;22.80;99.90
21403;DHT22;10862;51.886;17.078;2022-08-18T05:50:09;22.80;99.90
21403;DHT22;10862;51.886;17.078;2022-08-18T05:52:36;22.80;99.90
21403;DHT22;10862;51.886;17.078;2022-08-18T05:55:04;23.00;99.90
21403;DHT22;10862;51.886;17.078;2022-08-18T05:57:54;23.00;99.90
21403;DHT22;10862;51.886;17.078;2022-08-18T06:00:21;23.10;99.90
21403;DHT22;10862;51.886;17.078;2022-08-18T06:03:21;23.20;99.90
21403;DHT22;10862;51.886;17.078;2022-08-18T06:05:43;23.50;99.90
21403;DHT22;10862;51.886;17.078;2022-08-18T06:08:11;23.60;99.90
21403;DHT22;10862;51.886;17.078;2022-08-18T06:10:37;23.50;99.90
21403;DHT22;10862;51.886;17.078;2022-08-18T06:13:06;23.50;99.90
21403;DHT22;10862;51.886;17.078;2022-08-18T06:28:19;24.30;99.90
21403;DHT22;10862;51.886;17.078;2022-08-18T06:30:54;24.50;99.90
21403;DHT22;10862;51.886;17.078;2022-08-18T06:35:48;24.80;99.90
21403;DHT22;10862;51.886;17.078;2022-08-18T06:43:53;25.20;99.90
21403;DHT22;10862;51.886;17.078;2022-08-18T06:46:22;25.20;99.90
21403;DHT22;10862;51.886;17.078;2022-08-18T06:48:54;25.30;99.90
21403;DHT22;10862;51.886;17.078;2022-08-18T06:51:21;25.30;99.90
21403;DHT22;10862;51.886;17.078;2022-08-18T06:53:51;25.50;99.90
21403;DHT22;10862;51.886;17.078;2022-08-18T06:56:22;25.60;99.90
21403;DHT22;10862;51.886;17.078;2022-08-18T06:58:49;25.70;99.90
21403;DHT22;10862;51.886;17.078;2022-08-18T07:01:17;25.80;99.90
21403;DHT22;10862;51.886;17.078;2022-08-18T07:03:47;25.60;99.90
21403;DHT22;10862;51.886;17.078;2022-08-18T07:08:48;26.00;99.90
21403;DHT22;10862;51.886;17.078;2022-08-18T07:11:19;26.20;99.90
21403;DHT22;10862;51.886;17.078;2022-08-18T07:13:46;26.20;99.90
21403;DHT22;10862;51.886;17.078;2022-08-18T07:18:40;26.30;99.90
21403;DHT22;10862;51.886;17.078;2022-08-18T07:21:05;26.50;99.90
21403;DHT22;10862;51.886;17.078;2022-08-18T07:23:35;26.50;99.90
21403;DHT22;10862;51.886;17.078;2022-08-18T07:26:11;26.60;99.90
21403;DHT22;10862;51.886;17.078;2022-08-18T07:28:39;26.90;99.90
21403;DHT22;10862;51.886;17.078;2022-08-18T07:31:11;27.10;99.90
21403;DHT22;10862;51.886;17.078;2022-08-18T07:33:37;26.90;99.90
21403;DHT22;10862;51.886;17.078;2022-08-18T07:36:04;27.20;99.90
21403;DHT22;10862;51.886;17.078;2022-08-18T07:41:22;27.50;99.90
21403;DHT22;10862;51.886;17.078;2022-08-18T07:46:51;27.50;99.90
21403;DHT22;10862;51.886;17.078;2022-08-18T07:49:21;27.70;99.90
21403;DHT22;10862;51.886;17.078;2022-08-18T07:51:53;28.00;99.90
21403;DHT22;10862;51.886;17.078;2022-08-18T07:56:52;28.30;99.90
21403;DHT22;10862;51.886;17.078;2022-08-18T08:05:00;28.20;99.90
21403;DHT22;10862;51.886;17.078;2022-08-18T08:07:44;28.40;99.90
21403;DHT22;10862;51.886;17.078;2022-08-18T08:25:40;29.00;99.90
21403;DHT22;10862;51.886;17.078;2022-08-18T08:28:21;29.00;99.90
21403;DHT22;10862;51.886;17.078;2022-08-18T08:33:33;29.50;99.90
21403;DHT22;10862;51.886;17.078;2022-08-18T08:36:05;29.50;99.90
21403;DHT22;10862;51.886;17.078;2022-08-18T08:38:45;29.60;99.90
21403;DHT22;10862;51.886;17.078;2022-08-18T08:41:30;29.40;99.90
21403;DHT22;10862;51.886;17.078;2022-08-18T08:46:24;29.60;98.00
21403;DHT22;10862;51.886;17.078;2022-08-18T08:48:55;30.10;96.50
21403;DHT22;10862;51.886;17.078;2022-08-18T08:54:35;30.20;96.60
21403;DHT22;10862;51.886;17.078;2022-08-18T08:56:42;30.10;95.10
21403;DHT22;10862;51.886;17.078;2022-08-18T08:59:09;29.90;95.20
21403;DHT22;10862;51.886;17.078;2022-08-18T09:01:44;29.70;95.80
21403;DHT22;10862;51.886;17.078;2022-08-18T09:04:48;30.30;92.90
21403;DHT22;10862;51.886;17.078;2022-08-18T09:18:14;30.60;84.50
21403;DHT22;10862;51.886;17.078;2022-08-18T09:20:50;31.20;78.10
21403;DHT22;10862;51.886;17.078;2022-08-18T09:23:18;30.70;76.60
21403;DHT22;10862;51.886;17.078;2022-08-18T09:28:11;31.30;76.10
21403;DHT22;10862;51.886;17.078;2022-08-18T09:30:41;31.80;72.70
21403;DHT22;10862;51.886;17.078;2022-08-18T09:33:25;32.00;67.30
21403;DHT22;10862;51.886;17.078;2022-08-18T09:36:08;31.70;60.00
21403;DHT22;10862;51.886;17.078;2022-08-18T09:38:46;32.00;55.40
21403;DHT22;10862;51.886;17.078;2022-08-18T09:41:32;32.50;57.20
21403;DHT22;10862;51.886;17.078;2022-08-18T09:44:01;32.50;49.70
21403;DHT22;10862;51.886;17.078;2022-08-18T09:51:48;32.20;53.10
21403;DHT22;10862;51.886;17.078;2022-08-18T09:54:14;32.20;53.20
21403;DHT22;10862;51.886;17.078;2022-08-18T10:02:01;32.70;48.20
21403;DHT22;10862;51.886;17.078;2022-08-18T10:04:38;32.50;45.80
21403;DHT22;10862;51.886;17.078;2022-08-18T10:07:26;32.20;42.40
21403;DHT22;10862;51.886;17.078;2022-08-18T10:12:38;32.80;37.30
21403;DHT22;10862;51.886;17.078;2022-08-18T10:15:25;32.40;35.70
21403;DHT22;10862;51.886;17.078;2022-08-18T10:18:02;32.80;38.50
21403;DHT22;10862;51.886;17.078;2022-08-18T10:23:12;33.00;38.90
21403;DHT22;10862;51.886;17.078;2022-08-18T10:25:57;33.30;37.50
21403;DHT22;10862;51.886;17.078;2022-08-18T10:31:06;33.30;35.10
21403;DHT22;10862;51.886;17.078;2022-08-18T10:39:05;33.50;27.80
21403;DHT22;10862;51.886;17.078;2022-08-18T10:41:31;33.30;29.80
21403;DHT22;10862;51.886;17.078;2022-08-18T10:43:58;33.90;27.40
21403;DHT22;10862;51.886;17.078;2022-08-18T10:46:26;33.80;27.60
21403;DHT22;10862;51.886;17.078;2022-08-18T10:49:00;33.70;27.10
21403;DHT22;10862;51.886;17.078;2022-08-18T10:51:32;33.50;25.20
21403;DHT22;10862;51.886;17.078;2022-08-18T10:59:02;33.00;21.10
21403;DHT22;10862;51.886;17.078;2022-08-18T11:04:35;34.70;22.70
21403;DHT22;10862;51.886;17.078;2022-08-18T11:07:09;34.80;18.80
21403;DHT22;10862;51.886;17.078;2022-08-18T11:09:35;35.10;13.90
21403;DHT22;10862;51.886;17.078;2022-08-18T11:12:02;34.90;12.50
21403;DHT22;10862;51.886;17.078;2022-08-18T11:14:41;35.40;13.10
21403;DHT22;10862;51.886;17.078;2022-08-18T11:19:37;35.20;14.20
21403;DHT22;10862;51.886;17.078;2022-08-18T11:22:03;35.50;13.40
21403;DHT22;10862;51.886;17.078;2022-08-18T11:24:30;35.70;13.50
21403;DHT22;10862;51.886;17.078;2022-08-18T11:27:04;34.30;14.00
21403;DHT22;10862;51.886;17.078;2022-08-18T11:34:38;34.90;10.80
21403;DHT22;10862;51.886;17.078;2022-08-18T11:37:12;34.60;11.90
21403;DHT22;10862;51.886;17.078;2022-08-18T11:39:47;34.70;11.20
21403;DHT22;10862;51.886;17.078;2022-08-18T11:42:14;33.80;14.70
21403;DHT22;10862;51.886;17.078;2022-08-18T11:44:40;35.20;12.70
21403;DHT22;10862;51.886;17.078;2022-08-18T11:47:11;34.70;11.60
21403;DHT22;10862;51.886;17.078;2022-08-18T11:49:43;34.80;10.60
21403;DHT22;10862;51.886;17.078;2022-08-18T11:53:11;35.00;9.20
21403;DHT22;10862;51.886;17.078;2022-08-18T11:55:05;36.10;9.60
21403;DHT22;10862;51.886;17.078;2022-08-18T11:57:41;36.50;7.30
21403;DHT22;10862;51.886;17.078;2022-08-18T12:03:03;34.30;8.30
21403;DHT22;10862;51.886;17.078;2022-08-18T12:05:39;34.50;10.10
21403;DHT22;10862;51.886;17.078;2022-08-18T12:08:14;35.50;9.20
21403;DHT22;10862;51.886;17.078;2022-08-18T12:10:40;35.80;8.40
21403;DHT22;10862;51.886;17.078;2022-08-18T12:13:06;36.00;5.60
21403;DHT22;10862;51.886;17.078;2022-08-18T12:15:32;36.60;5.90
21403;DHT22;10862;51.886;17.078;2022-08-18T12:17:58;36.80;4.40
21403;DHT22;10862;51.886;17.078;2022-08-18T12:20:23;35.20;5.10
21403;DHT22;10862;51.886;17.078;2022-08-18T12:22:49;34.70;4.90
21403;DHT22;10862;51.886;17.078;2022-08-18T12:25:16;35.40;3.80
21403;DHT22;10862;51.886;17.078;2022-08-18T12:27:42;35.10;5.60
21403;DHT22;10862;51.886;17.078;2022-08-18T12:30:08;34.80;7.30
21403;DHT22;10862;51.886;17.078;2022-08-18T12:32:35;35.10;6.30
21403;DHT22;10862;51.886;17.078;2022-08-18T12:35:01;35.80;5.00
21403;DHT22;10862;51.886;17.078;2022-08-18T12:37:27;35.90;3.70
21403;DHT22;10862;51.886;17.078;2022-08-18T12:39:54;36.00;4.40
21403;DHT22;10862;51.886;17.078;2022-08-18T12:42:19;35.70;4.20
21403;DHT22;10862;51.886;17.078;2022-08-18T12:44:46;36.10;3.50
21403;DHT22;10862;51.886;17.078;2022-08-18T12:47:13;34.50;5.80
21403;DHT22;10862;51.886;17.078;2022-08-18T12:49:39;35.40;4.60
21403;DHT22;10862;51.886;17.078;2022-08-18T12:52:05;36.30;3.50
21403;DHT22;10862;51.886;17.078;2022-08-18T12:54:31;36.70;1.00
21403;DHT22;10862;51.886;17.078;2022-08-18T12:56:58;36.20;1.00
21403;DHT22;10862;51.886;17.078;2022-08-18T12:59:23;35.90;1.00
21403;DHT22;10862;51.886;17.078;2022-08-18T13:01:49;35.50;1.00
21403;DHT22;10862;51.886;17.078;2022-08-18T13:04:15;35.40;1.00
21403;DHT22;10862;51.886;17.078;2022-08-18T13:06:48;36.30;1.00
21403;DHT22;10862;51.886;17.078;2022-08-18T13:09:14;35.70;1.00
21403;DHT22;10862;51.886;17.078;2022-08-18T13:11:40;35.30;1.00
21403;DHT22;10862;51.886;17.078;2022-08-18T13:14:06;35.70;1.00
21403;DHT22;10862;51.886;17.078;2022-08-18T13:16:33;34.80;1.00
21403;DHT22;10862;51.886;17.078;2022-08-18T13:18:59;34.90;1.00
21403;DHT22;10862;51.886;17.078;2022-08-18T13:21:25;34.20;1.30
21403;DHT22;10862;51.886;17.078;2022-08-18T13:23:51;35.20;1.00
21403;DHT22;10862;51.886;17.078;2022-08-18T13:26:20;34.80;1.00
21403;DHT22;10862;51.886;17.078;2022-08-18T13:28:49;35.50;1.00
21403;DHT22;10862;51.886;17.078;2022-08-18T13:31:14;35.50;1.00
21403;DHT22;10862;51.886;17.078;2022-08-18T13:33:40;35.50;1.00
21403;DHT22;10862;51.886;17.078;2022-08-18T13:36:06;36.30;1.00
21403;DHT22;10862;51.886;17.078;2022-08-18T13:38:31;35.70;1.00
21403;DHT22;10862;51.886;17.078;2022-08-18T13:40:57;35.70;1.00
21403;DHT22;10862;51.886;17.078;2022-08-18T13:43:26;35.30;1.00
21403;DHT22;10862;51.886;17.078;2022-08-18T13:45:53;36.30;1.00
21403;DHT22;10862;51.886;17.078;2022-08-18T13:48:19;36.90;1.00
21403;DHT22;10862;51.886;17.078;2022-08-18T13:50:44;34.90;1.00
21403;DHT22;10862;51.886;17.078;2022-08-18T13:53:14;34.50;1.10
21403;DHT22;10862;51.886;17.078;2022-08-18T13:55:40;34.70;1.30
21403;DHT22;10862;51.886;17.078;2022-08-18T13:58:05;34.50;1.00
21403;DHT22;10862;51.886;17.078;2022-08-18T14:00:32;35.60;1.00
21403;DHT22;10862;51.886;17.078;2022-08-18T14:02:58;35.90;1.00
21403;DHT22;10862;51.886;17.078;2022-08-18T14:05:24;35.80;1.00
21403;DHT22;10862;51.886;17.078;2022-08-18T14:07:50;35.20;1.00
21403;DHT22;10862;51.886;17.078;2022-08-18T14:10:15;34.40;1.00
21403;DHT22;10862;51.886;17.078;2022-08-18T14:12:41;34.10;1.00
21403;DHT22;10862;51.886;17.078;2022-08-18T14:15:08;33.50;2.50
21403;DHT22;10862;51.886;17.078;2022-08-18T14:17:34;34.50;2.10
21403;DHT22;10862;51.886;17.078;2022-08-18T14:20:00;34.50;1.00
21403;DHT22;10862;51.886;17.078;2022-08-18T14:22:44;35.10;1.00
21403;DHT22;10862;51.886;17.078;2022-08-18T14:25:28;34.30;1.00
21403;DHT22;10862;51.886;17.078;2022-08-18T14:28:13;35.20;1.00
21403;DHT22;10862;51.886;17.078;2022-08-18T14:30:42;35.40;1.00
21403;DHT22;10862;51.886;17.078;2022-08-18T14:33:08;34.60;1.00
21403;DHT22;10862;51.886;17.078;2022-08-18T14:35:39;33.80;1.00
21403;DHT22;10862;51.886;17.078;2022-08-18T14:38:05;34.80;1.00
21403;DHT22;10862;51.886;17.078;2022-08-18T14:40:31;34.70;1.00
21403;DHT22;10862;51.886;17.078;2022-08-18T14:42:57;33.60;1.00
21403;DHT22;10862;51.886;17.078;2022-08-18T14:45:23;34.00;1.00
21403;DHT22;10862;51.886;17.078;2022-08-18T14:47:50;33.60;1.70
21403;DHT22;10862;51.886;17.078;2022-08-18T14:50:18;33.70;3.20
21403;DHT22;10862;51.886;17.078;2022-08-18T14:52:44;33.50;3.60
21403;DHT22;10862;51.886;17.078;2022-08-18T14:55:09;33.80;3.50
21403;DHT22;10862;51.886;17.078;2022-08-18T14:57:36;33.50;2.90
21403;DHT22;10862;51.886;17.078;2022-08-18T15:00:03;33.90;2.70
21403;DHT22;10862;51.886;17.078;2022-08-18T15:02:29;34.50;1.00
21403;DHT22;10862;51.886;17.078;2022-08-18T15:04:54;34.60;1.00
21403;DHT22;10862;51.886;17.078;2022-08-18T15:07:20;34.10;1.00
21403;DHT22;10862;51.886;17.078;2022-08-18T15:09:46;34.40;1.00
21403;DHT22;10862;51.886;17.078;2022-08-18T15:12:12;35.10;1.00
21403;DHT22;10862;51.886;17.078;2022-08-18T15:14:39;35.10;1.00
21403;DHT22;10862;51.886;17.078;2022-08-18T15:17:05;34.50;1.20
21403;DHT22;10862;51.886;17.078;2022-08-18T15:19:33;34.50;1.00
21403;DHT22;10862;51.886;17.078;2022-08-18T15:21:58;33.90;1.90
21403;DHT22;10862;51.886;17.078;2022-08-18T15:24:42;33.80;2.20
21403;DHT22;10862;51.886;17.078;2022-08-18T15:27:34;34.30;2.50
21403;DHT22;10862;51.886;17.078;2022-08-18T15:30:04;34.00;3.60
21403;DHT22;10862;51.886;17.078;2022-08-18T15:32:30;34.40;2.90
21403;DHT22;10862;51.886;17.078;2022-08-18T15:34:56;34.00;3.10
21403;DHT22;10862;51.886;17.078;2022-08-18T15:37:22;33.50;3.50
21403;DHT22;10862;51.886;17.078;2022-08-18T15:39:48;33.80;3.90
21403;DHT22;10862;51.886;17.078;2022-08-18T15:42:13;33.60;3.20
21403;DHT22;10862;51.886;17.078;2022-08-18T15:44:39;34.10;3.50
21403;DHT22;10862;51.886;17.078;2022-08-18T15:47:04;33.60;4.10
21403;DHT22;10862;51.886;17.078;2022-08-18T15:49:31;33.60;4.70
21403;DHT22;10862;51.886;17.078;2022-08-18T15:51:57;33.50;5.00
21403;DHT22;10862;51.886;17.078;2022-08-18T15:54:22;33.90;5.00
21403;DHT22;10862;51.886;17.078;2022-08-18T15:56:48;33.60;4.30
21403;DHT22;10862;51.886;17.078;2022-08-18T15:59:13;33.50;4.10
21403;DHT22;10862;51.886;17.078;2022-08-18T16:01:39;33.40;4.90
21403;DHT22;10862;51.886;17.078;2022-08-18T16:04:05;33.40;4.90
21403;DHT22;10862;51.886;17.078;2022-08-18T16:06:31;33.60;4.50
21403;DHT22;10862;51.886;17.078;2022-08-18T16:08:57;33.30;6.00
21403;DHT22;10862;51.886;17.078;2022-08-18T16:11:23;33.10;5.60
21403;DHT22;10862;51.886;17.078;2022-08-18T16:13:48;32.70;5.50
21403;DHT22;10862;51.886;17.078;2022-08-18T16:16:15;32.70;5.60
21403;DHT22;10862;51.886;17.078;2022-08-18T16:18:41;32.50;6.00
21403;DHT22;10862;51.886;17.078;2022-08-18T16:21:10;32.50;5.80
21403;DHT22;10862;51.886;17.078;2022-08-18T16:23:37;32.10;6.00
21403;DHT22;10862;51.886;17.078;2022-08-18T16:26:03;31.90;7.90
21403;DHT22;10862;51.886;17.078;2022-08-18T16:28:28;31.70;8.50
21403;DHT22;10862;51.886;17.078;2022-08-18T16:30:55;31.60;9.00
21403;DHT22;10862;51.886;17.078;2022-08-18T16:33:22;31.50;10.30
21403;DHT22;10862;51.886;17.078;2022-08-18T16:35:47;31.50;10.90
21403;DHT22;10862;51.886;17.078;2022-08-18T16:38:15;31.50;10.70
21403;DHT22;10862;51.886;17.078;2022-08-18T16:40:41;31.30;10.60
21403;DHT22;10862;51.886;17.078;2022-08-18T16:43:06;31.00;11.40
21403;DHT22;10862;51.886;17.078;2022-08-18T16:45:35;31.00;12.20
21403;DHT22;10862;51.886;17.078;2022-08-18T16:48:01;30.90;12.40
21403;DHT22;10862;51.886;17.078;2022-08-18T16:50:26;30.90;12.60
21403;DHT22;10862;51.886;17.078;2022-08-18T16:52:52;30.80;13.10
21403;DHT22;10862;51.886;17.078;2022-08-18T16:55:18;30.70;13.40
21403;DHT22;10862;51.886;17.078;2022-08-18T16:57:44;30.70;14.20
21403;DHT22;10862;51.886;17.078;2022-08-18T17:00:28;30.60;15.20
21403;DHT22;10862;51.886;17.078;2022-08-18T17:03:12;30.60;15.30
21403;DHT22;10862;51.886;17.078;2022-08-18T17:06:04;30.50;16.00
21403;DHT22;10862;51.886;17.078;2022-08-18T17:08:29;30.50;16.50
21403;DHT22;10862;51.886;17.078;2022-08-18T17:11:02;30.50;17.30
21403;DHT22;10862;51.886;17.078;2022-08-18T17:13:28;30.30;18.20
21403;DHT22;10862;51.886;17.078;2022-08-18T17:15:54;30.30;19.20
21403;DHT22;10862;51.886;17.078;2022-08-18T17:18:20;30.30;19.10
21403;DHT22;10862;51.886;17.078;2022-08-18T17:20:45;30.20;20.10
21403;DHT22;10862;51.886;17.078;2022-08-18T17:23:11;30.20;20.50
21403;DHT22;10862;51.886;17.078;2022-08-18T17:25:36;30.20;21.30
21403;DHT22;10862;51.886;17.078;2022-08-18T17:28:02;30.10;21.70
21403;DHT22;10862;51.886;17.078;2022-08-18T17:30:30;29.90;22.70
21403;DHT22;10862;51.886;17.078;2022-08-18T17:33:00;29.80;23.60